createdAt,value
2018-09-25T00:00:01.972Z,1021.4
2018-09-25T00:05:01.315Z,1021.4
2018-09-25T00:10:01.597Z,1021.42
2018-09-25T00:15:01.966Z,1021.39
2018-09-25T00:20:01.320Z,1021.41
2018-09-25T00:25:01.642Z,1021.45
2018-09-25T00:30:01.957Z,1021.44
2018-09-25T00:35:02.544Z,1021.48
2018-09-25T00:40:01.830Z,1021.46
2018-09-25T00:45:02.142Z,1021.5
2018-09-25T00:50:01.501Z,1021.58
2018-09-25T00:55:01.855Z,1021.54
2018-09-25T01:00:02.208Z,1021.49
2018-09-25T01:05:01.634Z,1021.51
2018-09-25T01:10:02.007Z,1021.53
2018-09-25T01:15:01.344Z,1021.5
2018-09-25T01:20:01.739Z,1021.48
2018-09-25T01:25:01.401Z,1021.52
2018-09-25T01:30:01.733Z,1021.48
2018-09-25T01:35:02.238Z,1021.56
2018-09-25T01:40:01.538Z,1021.63
2018-09-25T01:45:01.841Z,1021.59
2018-09-25T01:50:02.369Z,1021.58
2018-09-25T01:55:01.745Z,1021.57
2018-09-25T02:00:02.083Z,1021.66
2018-09-25T02:05:01.432Z,1021.67
2018-09-25T02:10:01.771Z,1021.73
2018-09-25T02:15:02.214Z,1021.69
2018-09-25T02:20:01.584Z,1021.73
2018-09-25T02:25:02.312Z,1021.71
2018-09-25T02:30:01.743Z,1021.76
2018-09-25T02:35:02.318Z,1021.75
2018-09-25T02:40:01.945Z,1021.76
2018-09-25T02:45:02.460Z,1021.73
2018-09-25T02:50:01.837Z,1021.75
2018-09-25T02:55:02.141Z,1021.72
2018-09-25T03:00:01.415Z,1021.77
2018-09-25T03:05:01.845Z,1021.74
2018-09-25T03:10:02.157Z,1021.75
2018-09-25T03:15:01.520Z,1021.67
2018-09-25T03:20:01.945Z,1021.71
2018-09-25T03:25:02.333Z,1021.75
2018-09-25T03:30:01.623Z,1021.69
2018-09-25T03:35:02.151Z,1021.55
2018-09-25T03:40:01.447Z,1021.51
2018-09-25T03:45:01.808Z,1021.52
2018-09-25T03:50:02.241Z,1021.6
2018-09-25T03:55:01.504Z,1021.69
2018-09-25T04:00:01.801Z,1021.71
2018-09-25T04:05:02.366Z,1021.74
2018-09-25T04:10:01.670Z,1021.77
2018-09-25T04:15:01.992Z,1021.75
2018-09-25T04:20:01.309Z,1021.71
2018-09-25T04:25:01.830Z,1021.76
2018-09-25T04:30:02.163Z,1021.82
2018-09-25T04:35:01.637Z,1021.83
2018-09-25T04:40:02.271Z,1021.85
2018-09-25T04:45:01.540Z,1021.81
2018-09-25T04:50:01.990Z,1021.83
2018-09-25T04:55:02.312Z,1021.89
2018-09-25T05:00:01.657Z,1021.89
2018-09-25T05:05:02.121Z,1021.87
2018-09-25T05:10:01.404Z,1021.97
2018-09-25T05:15:01.720Z,1022.03
2018-09-25T05:20:02.267Z,1022.1
2018-09-25T05:25:02.081Z,1022.18
2018-09-25T05:30:01.453Z,1022.22
2018-09-25T05:35:01.957Z,1022.31
2018-09-25T05:40:02.326Z,1022.23
2018-09-25T05:45:01.611Z,1022.24
2018-09-25T05:50:01.964Z,1022.25
2018-09-25T05:55:02.243Z,1022.33
2018-09-25T06:00:01.570Z,1022.49
2018-09-25T06:05:01.950Z,1022.4
2018-09-25T06:10:02.214Z,1022.46
2018-09-25T06:15:01.467Z,1022.39
2018-09-25T06:20:01.999Z,1022.33
2018-09-25T06:25:01.269Z,1022.44
2018-09-25T06:30:01.539Z,1022.46
2018-09-25T06:35:02.520Z,1022.61
2018-09-25T06:40:01.838Z,1022.63
2018-09-25T06:45:02.126Z,1022.61
2018-09-25T06:50:01.563Z,1022.57
2018-09-25T06:55:02.703Z,1022.63
2018-09-25T07:00:02.242Z,1022.72
2018-09-25T07:05:01.655Z,1022.78
2018-09-25T07:10:02.790Z,1022.8
2018-09-25T07:15:02.187Z,1022.79
2018-09-25T07:20:01.636Z,1022.82
2018-09-25T07:25:02.216Z,1022.88
2018-09-25T07:30:01.615Z,1023.01
2018-09-25T07:35:02.084Z,1023.04
2018-09-25T07:40:01.338Z,1023.12
2018-09-25T07:45:01.640Z,1023.25
2018-09-25T07:50:01.908Z,1023.29
2018-09-25T07:55:02.209Z,1023.29
2018-09-25T08:00:01.467Z,1023.39
2018-09-25T08:05:01.971Z,1023.38
2018-09-25T08:10:02.293Z,1023.38
2018-09-25T08:15:01.566Z,1023.34
2018-09-25T08:20:02.071Z,1023.41
2018-09-25T08:25:01.367Z,1023.41
2018-09-25T08:30:01.671Z,1023.46
2018-09-25T08:35:02.513Z,1023.44
2018-09-25T08:40:01.828Z,1023.53
2018-09-25T08:45:02.152Z,1023.56
2018-09-25T08:50:01.484Z,1023.7
2018-09-25T08:55:01.813Z,1023.72
2018-09-25T09:00:02.165Z,1023.68
2018-09-25T09:05:01.575Z,1023.7
2018-09-25T09:10:01.819Z,1023.72
2018-09-25T09:15:02.110Z,1023.69
2018-09-25T09:20:01.719Z,1023.72
2018-09-25T09:25:02.276Z,1023.71
2018-09-25T09:30:01.645Z,1023.64
2018-09-25T09:35:02.147Z,1023.6
2018-09-25T09:40:01.419Z,1023.62
2018-09-25T09:45:01.788Z,1023.64
2018-09-25T09:50:02.211Z,1023.62
2018-09-25T09:55:01.495Z,1023.54
2018-09-25T10:00:01.783Z,1023.47
2018-09-25T10:05:02.280Z,1023.44
2018-09-25T10:10:01.612Z,1023.45
2018-09-25T10:15:01.909Z,1023.41
2018-09-25T10:20:02.478Z,1023.4
2018-09-25T10:25:01.883Z,1023.36
2018-09-25T10:30:02.211Z,1023.29
2018-09-25T10:35:01.630Z,1023.34
2018-09-25T10:40:01.981Z,1023.39
2018-09-25T10:45:02.316Z,1023.29
2018-09-25T10:50:01.786Z,1023.31
2018-09-25T10:55:02.154Z,1023.35
2018-09-25T11:00:01.395Z,1023.32
2018-09-25T11:05:01.905Z,1023.34
2018-09-25T11:10:02.520Z,1023.25
2018-09-25T11:15:01.885Z,1023.32
2018-09-25T11:20:02.362Z,1023.33
2018-09-25T11:25:01.723Z,1023.33
2018-09-25T11:30:02.030Z,1023.3
2018-09-25T11:35:01.391Z,1023.27
2018-09-25T11:40:01.683Z,1023.28
2018-09-25T11:45:02.010Z,1023.31
2018-09-25T11:50:01.671Z,1023.24
2018-09-25T11:55:02.034Z,1023.15
2018-09-25T12:00:01.288Z,1023.15
2018-09-25T12:05:01.774Z,1023.04
2018-09-25T12:10:02.017Z,1023.04
2018-09-25T12:15:01.302Z,1022.93
2018-09-25T12:20:02.099Z,1022.97
2018-09-25T12:25:01.520Z,1023.05
2018-09-25T12:30:01.859Z,1023.05
2018-09-25T12:35:02.409Z,1022.94
2018-09-25T12:40:01.712Z,1022.97
2018-09-25T12:45:02.010Z,1022.89
2018-09-25T12:50:01.346Z,1022.82
2018-09-25T12:55:01.663Z,1022.84
2018-09-25T13:00:01.915Z,1022.8
2018-09-25T13:05:02.420Z,1022.65
2018-09-25T13:10:01.765Z,1022.62
2018-09-25T13:15:02.110Z,1022.57
2018-09-25T13:20:01.571Z,1022.5
2018-09-25T13:25:01.932Z,1022.42
2018-09-25T13:30:02.318Z,1022.31
2018-09-25T13:35:01.731Z,1022.16
2018-09-25T13:40:02.026Z,1022.02
2018-09-25T13:45:02.244Z,1022.03
2018-09-25T13:50:01.591Z,1021.98
2018-09-25T13:55:01.914Z,1021.91
2018-09-25T14:00:02.194Z,1021.87
2018-09-25T14:05:01.571Z,1021.72
2018-09-25T14:10:01.942Z,1021.72
2018-09-25T14:15:02.308Z,1021.67
2018-09-25T14:20:01.813Z,1021.55
2018-09-25T14:25:02.178Z,1021.54
2018-09-25T14:30:01.443Z,1021.42
2018-09-25T14:35:01.937Z,1021.47
2018-09-25T14:40:02.248Z,1021.43
2018-09-25T14:45:01.624Z,1021.41
2018-09-25T14:50:02.039Z,1021.37
2018-09-25T14:55:01.308Z,1021.37
2018-09-25T15:00:01.579Z,1021.36
2018-09-25T15:05:02.072Z,1021.37
2018-09-25T15:10:01.325Z,1021.25
2018-09-25T15:15:01.621Z,1021.15
2018-09-25T15:20:02.150Z,1021.04
2018-09-25T15:25:01.409Z,1021.09
2018-09-25T15:30:01.749Z,1021.01
2018-09-25T15:35:02.583Z,1021.06
2018-09-25T15:40:01.915Z,1021.08
2018-09-25T15:45:02.163Z,1021.06
2018-09-25T15:50:01.507Z,1021.09
2018-09-25T15:55:01.807Z,1020.99
2018-09-25T16:00:02.131Z,1020.97
2018-09-25T16:05:01.461Z,1021
2018-09-25T16:10:01.753Z,1020.97
2018-09-25T16:15:02.161Z,1021
2018-09-25T16:20:01.511Z,1021.03
2018-09-25T16:25:01.862Z,1020.97
2018-09-25T16:30:02.169Z,1020.89
2018-09-25T16:35:01.613Z,1020.94
2018-09-25T16:40:01.896Z,1020.88
2018-09-25T16:45:02.179Z,1020.93
2018-09-25T16:50:01.596Z,1020.92
2018-09-25T16:55:01.919Z,1020.97
2018-09-25T17:00:02.202Z,1021.02
2018-09-25T17:05:01.563Z,1021.09
2018-09-25T17:10:01.948Z,1021.12
2018-09-25T17:15:02.325Z,1021.12
2018-09-25T17:20:01.808Z,1021.11
2018-09-25T17:25:02.216Z,1021.18
2018-09-25T17:30:01.557Z,1021.2
2018-09-25T17:35:01.982Z,1021.2
2018-09-25T17:40:02.293Z,1021.17
2018-09-25T17:45:01.588Z,1021.18
2018-09-25T17:50:02.109Z,1021.22
2018-09-25T17:55:01.361Z,1021.33
2018-09-25T18:00:01.685Z,1021.32
2018-09-25T18:05:02.159Z,1021.47
2018-09-25T18:10:01.476Z,1021.45
2018-09-25T18:15:01.734Z,1021.49
2018-09-25T18:20:02.204Z,1021.5
2018-09-25T18:25:01.502Z,1021.53
2018-09-25T18:30:01.835Z,1021.54
2018-09-25T18:35:02.323Z,1021.5
2018-09-25T18:40:01.663Z,1021.48
2018-09-25T18:45:01.971Z,1021.54
2018-09-25T18:50:02.459Z,1021.66
2018-09-25T18:55:01.742Z,1021.74
2018-09-25T19:00:02.060Z,1021.75
2018-09-25T19:05:01.797Z,1021.65
2018-09-25T19:10:02.230Z,1021.65
2018-09-25T19:15:01.526Z,1021.76
2018-09-25T19:20:02.085Z,1021.77
2018-09-25T19:25:01.348Z,1021.71
2018-09-25T19:30:01.663Z,1021.62
2018-09-25T19:35:02.100Z,1021.57
2018-09-25T19:40:01.400Z,1021.55
2018-09-25T19:45:01.722Z,1021.63
2018-09-25T19:50:02.212Z,1021.67
2018-09-25T19:55:01.474Z,1021.6
2018-09-25T20:00:01.803Z,1021.6
2018-09-25T20:05:02.305Z,1021.62
2018-09-25T20:10:01.609Z,1021.66
2018-09-25T20:15:02.296Z,1021.64
2018-09-25T20:20:01.712Z,1021.6
2018-09-25T20:25:02.040Z,1021.53
2018-09-25T20:30:01.304Z,1021.47
2018-09-25T20:35:01.779Z,1021.47
2018-09-25T20:40:02.136Z,1021.35
2018-09-25T20:45:01.379Z,1021.3
2018-09-25T20:50:01.815Z,1021.26
2018-09-25T20:55:02.165Z,1021.26
2018-09-25T21:00:01.505Z,1021.34
2018-09-25T21:05:02.056Z,1021.34
2018-09-25T21:10:01.339Z,1021.3
2018-09-25T21:15:01.673Z,1021.27
2018-09-25T21:20:02.212Z,1021.15
2018-09-25T21:25:01.463Z,1021.12
2018-09-25T21:30:01.799Z,1020.98
2018-09-25T21:35:02.377Z,1021
2018-09-25T21:40:01.959Z,1020.91
2018-09-25T21:45:01.398Z,1020.76
2018-09-25T21:50:01.872Z,1020.68
2018-09-25T21:55:02.240Z,1020.74
2018-09-25T22:00:01.533Z,1020.93
2018-09-25T22:05:02.001Z,1021.02
2018-09-25T22:10:01.258Z,1021
2018-09-25T22:15:01.666Z,1021.03
2018-09-25T22:20:02.087Z,1020.94
2018-09-25T22:25:01.356Z,1020.8
2018-09-25T22:30:01.655Z,1020.51
2018-09-25T22:35:02.148Z,1020.56
2018-09-25T22:40:01.455Z,1020.62
2018-09-25T22:45:01.757Z,1020.42
2018-09-25T22:50:02.313Z,1020.4
2018-09-25T22:55:01.594Z,1020.34
2018-09-25T23:00:01.863Z,1020.32
2018-09-25T23:05:02.355Z,1020.22
2018-09-25T23:10:01.708Z,1020.23
2018-09-25T23:15:02.012Z,1020.06
2018-09-25T23:20:01.352Z,1020.05
2018-09-25T23:25:01.713Z,1020.03
2018-09-25T23:30:02.041Z,1020.1
2018-09-25T23:35:01.367Z,1020.05
2018-09-25T23:40:01.678Z,1019.89
2018-09-25T23:45:01.959Z,1019.72
2018-09-25T23:50:02.449Z,1019.67
2018-09-25T23:55:01.765Z,1019.72
